sensor_id;sensor_type;location;lat;lon;timestamp;P1;durP1;ratioP1;P2;durP2;ratioP2
37945;SDS011;23769;52.478;13.448;2022-12-18T00:00:44;43.83;;;16.80;;
37945;SDS011;23769;52.478;13.448;2022-12-18T00:03:12;47.00;;;17.75;;
37945;SDS011;23769;52.478;13.448;2022-12-18T00:05:45;40.35;;;16.55;;
37945;SDS011;23769;52.478;13.448;2022-12-18T00:10:39;47.33;;;17.63;;
37945;SDS011;23769;52.478;13.448;2022-12-18T00:13:06;41.65;;;16.13;;
37945;SDS011;23769;52.478;13.448;2022-12-18T00:15:35;45.95;;;18.33;;
37945;SDS011;23769;52.478;13.448;2022-12-18T00:18:02;44.47;;;17.90;;
37945;SDS011;23769;52.478;13.448;2022-12-18T00:20:29;39.83;;;16.98;;
37945;SDS011;23769;52.478;13.448;2022-12-18T00:22:57;47.15;;;16.95;;
37945;SDS011;23769;52.478;13.448;2022-12-18T00:25:24;43.97;;;17.33;;
37945;SDS011;23769;52.478;13.448;2022-12-18T00:27:51;46.58;;;16.92;;
37945;SDS011;23769;52.478;13.448;2022-12-18T00:30:18;46.22;;;17.95;;
37945;SDS011;23769;52.478;13.448;2022-12-18T00:32:47;46.05;;;15.95;;
37945;SDS011;23769;52.478;13.448;2022-12-18T00:35:14;49.40;;;18.75;;
37945;SDS011;23769;52.478;13.448;2022-12-18T00:37:41;41.45;;;16.77;;
37945;SDS011;23769;52.478;13.448;2022-12-18T00:40:09;42.65;;;15.65;;
37945;SDS011;23769;52.478;13.448;2022-12-18T00:42:36;48.63;;;17.98;;
37945;SDS011;23769;52.478;13.448;2022-12-18T00:45:23;45.65;;;16.38;;
37945;SDS011;23769;52.478;13.448;2022-12-18T00:47:52;43.55;;;17.90;;
37945;SDS011;23769;52.478;13.448;2022-12-18T00:50:20;47.38;;;17.85;;
37945;SDS011;23769;52.478;13.448;2022-12-18T00:52:47;47.08;;;17.17;;
37945;SDS011;23769;52.478;13.448;2022-12-18T00:55:14;42.13;;;16.15;;
37945;SDS011;23769;52.478;13.448;2022-12-18T00:57:42;44.67;;;17.23;;
37945;SDS011;23769;52.478;13.448;2022-12-18T01:00:10;42.22;;;16.92;;
37945;SDS011;23769;52.478;13.448;2022-12-18T01:02:37;44.70;;;17.50;;
37945;SDS011;23769;52.478;13.448;2022-12-18T01:05:07;37.42;;;15.20;;
37945;SDS011;23769;52.478;13.448;2022-12-18T01:07:34;49.25;;;18.35;;
37945;SDS011;23769;52.478;13.448;2022-12-18T01:10:01;39.55;;;15.50;;
37945;SDS011;23769;52.478;13.448;2022-12-18T01:12:29;40.03;;;16.50;;
37945;SDS011;23769;52.478;13.448;2022-12-18T01:14:56;44.38;;;16.35;;
37945;SDS011;23769;52.478;13.448;2022-12-18T01:17:23;44.25;;;16.48;;
37945;SDS011;23769;52.478;13.448;2022-12-18T01:19:50;38.78;;;14.80;;
37945;SDS011;23769;52.478;13.448;2022-12-18T01:22:19;43.60;;;16.55;;
37945;SDS011;23769;52.478;13.448;2022-12-18T01:24:46;47.97;;;17.90;;
37945;SDS011;23769;52.478;13.448;2022-12-18T01:27:13;46.45;;;18.35;;
37945;SDS011;23769;52.478;13.448;2022-12-18T01:29:41;46.45;;;18.52;;
37945;SDS011;23769;52.478;13.448;2022-12-18T01:32:08;52.10;;;18.67;;
37945;SDS011;23769;52.478;13.448;2022-12-18T01:34:35;57.63;;;20.30;;
37945;SDS011;23769;52.478;13.448;2022-12-18T01:37:03;58.25;;;19.42;;
37945;SDS011;23769;52.478;13.448;2022-12-18T01:39:32;72.35;;;23.98;;
37945;SDS011;23769;52.478;13.448;2022-12-18T01:41:59;69.22;;;22.55;;
37945;SDS011;23769;52.478;13.448;2022-12-18T01:47:29;75.88;;;25.95;;
37945;SDS011;23769;52.478;13.448;2022-12-18T01:49:57;63.03;;;23.67;;
37945;SDS011;23769;52.478;13.448;2022-12-18T01:52:26;72.47;;;23.45;;
37945;SDS011;23769;52.478;13.448;2022-12-18T01:54:56;67.65;;;22.67;;
37945;SDS011;23769;52.478;13.448;2022-12-18T01:57:23;68.75;;;23.23;;
37945;SDS011;23769;52.478;13.448;2022-12-18T01:59:52;73.15;;;24.70;;
37945;SDS011;23769;52.478;13.448;2022-12-18T02:02:20;82.25;;;24.55;;
37945;SDS011;23769;52.478;13.448;2022-12-18T02:04:47;70.93;;;25.13;;
37945;SDS011;23769;52.478;13.448;2022-12-18T02:07:15;77.05;;;25.45;;
37945;SDS011;23769;52.478;13.448;2022-12-18T02:09:44;77.70;;;25.98;;
37945;SDS011;23769;52.478;13.448;2022-12-18T02:12:16;86.47;;;28.25;;
37945;SDS011;23769;52.478;13.448;2022-12-18T02:14:45;81.25;;;27.33;;
37945;SDS011;23769;52.478;13.448;2022-12-18T02:17:16;82.75;;;25.58;;
37945;SDS011;23769;52.478;13.448;2022-12-18T02:19:47;76.13;;;27.48;;
37945;SDS011;23769;52.478;13.448;2022-12-18T02:22:21;83.10;;;28.90;;
37945;SDS011;23769;52.478;13.448;2022-12-18T02:24:54;77.72;;;25.88;;
37945;SDS011;23769;52.478;13.448;2022-12-18T02:27:25;83.35;;;28.25;;
37945;SDS011;23769;52.478;13.448;2022-12-18T02:29:53;77.32;;;24.98;;
37945;SDS011;23769;52.478;13.448;2022-12-18T02:32:23;83.53;;;26.85;;
37945;SDS011;23769;52.478;13.448;2022-12-18T02:34:51;83.55;;;28.20;;
37945;SDS011;23769;52.478;13.448;2022-12-18T02:37:19;81.30;;;28.17;;
37945;SDS011;23769;52.478;13.448;2022-12-18T02:39:47;84.90;;;26.58;;
37945;SDS011;23769;52.478;13.448;2022-12-18T02:42:15;76.97;;;25.95;;
37945;SDS011;23769;52.478;13.448;2022-12-18T02:44:45;72.60;;;25.15;;
37945;SDS011;23769;52.478;13.448;2022-12-18T02:47:13;73.20;;;26.50;;
37945;SDS011;23769;52.478;13.448;2022-12-18T02:49:43;77.70;;;25.48;;
37945;SDS011;23769;52.478;13.448;2022-12-18T02:52:13;71.45;;;25.05;;
37945;SDS011;23769;52.478;13.448;2022-12-18T02:54:55;70.75;;;23.40;;
37945;SDS011;23769;52.478;13.448;2022-12-18T02:57:25;85.32;;;27.67;;
37945;SDS011;23769;52.478;13.448;2022-12-18T03:00:00;75.78;;;25.92;;
37945;SDS011;23769;52.478;13.448;2022-12-18T03:02:29;75.22;;;24.40;;
37945;SDS011;23769;52.478;13.448;2022-12-18T03:05:01;75.13;;;24.75;;
37945;SDS011;23769;52.478;13.448;2022-12-18T03:07:33;69.70;;;24.83;;
37945;SDS011;23769;52.478;13.448;2022-12-18T03:10:02;64.82;;;22.40;;
37945;SDS011;23769;52.478;13.448;2022-12-18T03:12:30;60.15;;;21.23;;
37945;SDS011;23769;52.478;13.448;2022-12-18T03:15:01;63.08;;;22.17;;
37945;SDS011;23769;52.478;13.448;2022-12-18T03:17:30;67.07;;;23.38;;
37945;SDS011;23769;52.478;13.448;2022-12-18T03:20:00;59.67;;;21.05;;
37945;SDS011;23769;52.478;13.448;2022-12-18T03:22:29;61.20;;;21.77;;
37945;SDS011;23769;52.478;13.448;2022-12-18T03:24:57;54.25;;;19.35;;
37945;SDS011;23769;52.478;13.448;2022-12-18T03:27:28;52.25;;;20.85;;
37945;SDS011;23769;52.478;13.448;2022-12-18T03:29:56;58.50;;;20.35;;
37945;SDS011;23769;52.478;13.448;2022-12-18T03:32:34;59.13;;;19.92;;
37945;SDS011;23769;52.478;13.448;2022-12-18T03:35:04;57.73;;;20.87;;
37945;SDS011;23769;52.478;13.448;2022-12-18T03:37:32;54.17;;;20.15;;
37945;SDS011;23769;52.478;13.448;2022-12-18T03:39:59;180.52;;;76.03;;
37945;SDS011;23769;52.478;13.448;2022-12-18T03:42:27;92.78;;;36.95;;
37945;SDS011;23769;52.478;13.448;2022-12-18T03:44:57;52.90;;;19.25;;
37945;SDS011;23769;52.478;13.448;2022-12-18T03:47:25;60.33;;;19.95;;
37945;SDS011;23769;52.478;13.448;2022-12-18T03:49:57;53.17;;;19.50;;
37945;SDS011;23769;52.478;13.448;2022-12-18T03:52:26;55.90;;;21.00;;
37945;SDS011;23769;52.478;13.448;2022-12-18T03:54:55;56.17;;;19.05;;
37945;SDS011;23769;52.478;13.448;2022-12-18T03:57:23;50.50;;;18.83;;
37945;SDS011;23769;52.478;13.448;2022-12-18T03:59:54;53.80;;;18.00;;
37945;SDS011;23769;52.478;13.448;2022-12-18T04:02:22;49.05;;;17.30;;
37945;SDS011;23769;52.478;13.448;2022-12-18T04:04:51;56.38;;;19.02;;
37945;SDS011;23769;52.478;13.448;2022-12-18T04:07:20;53.15;;;18.38;;
37945;SDS011;23769;52.478;13.448;2022-12-18T04:09:48;50.20;;;17.98;;
37945;SDS011;23769;52.478;13.448;2022-12-18T04:12:16;46.08;;;17.00;;
37945;SDS011;23769;52.478;13.448;2022-12-18T04:14:43;58.40;;;18.92;;
37945;SDS011;23769;52.478;13.448;2022-12-18T04:17:10;57.83;;;20.02;;
37945;SDS011;23769;52.478;13.448;2022-12-18T04:19:37;57.38;;;19.10;;
37945;SDS011;23769;52.478;13.448;2022-12-18T04:22:05;51.13;;;18.70;;
37945;SDS011;23769;52.478;13.448;2022-12-18T04:24:33;52.58;;;18.95;;
37945;SDS011;23769;52.478;13.448;2022-12-18T04:27:00;49.85;;;18.15;;
37945;SDS011;23769;52.478;13.448;2022-12-18T04:29:28;47.17;;;18.40;;
37945;SDS011;23769;52.478;13.448;2022-12-18T04:31:55;49.90;;;17.40;;
37945;SDS011;23769;52.478;13.448;2022-12-18T04:34:22;50.10;;;17.35;;
37945;SDS011;23769;52.478;13.448;2022-12-18T04:36:49;44.67;;;15.82;;
37945;SDS011;23769;52.478;13.448;2022-12-18T04:39:16;46.28;;;17.20;;
37945;SDS011;23769;52.478;13.448;2022-12-18T04:41:45;52.00;;;17.38;;
37945;SDS011;23769;52.478;13.448;2022-12-18T04:44:12;50.97;;;17.33;;
37945;SDS011;23769;52.478;13.448;2022-12-18T04:46:39;46.88;;;16.92;;
37945;SDS011;23769;52.478;13.448;2022-12-18T04:49:07;49.55;;;17.50;;
37945;SDS011;23769;52.478;13.448;2022-12-18T04:51:35;53.05;;;17.92;;
37945;SDS011;23769;52.478;13.448;2022-12-18T04:54:02;48.90;;;18.13;;
37945;SDS011;23769;52.478;13.448;2022-12-18T04:56:30;45.35;;;17.20;;
37945;SDS011;23769;52.478;13.448;2022-12-18T04:58:59;48.08;;;15.68;;
37945;SDS011;23769;52.478;13.448;2022-12-18T05:01:26;46.15;;;17.00;;
37945;SDS011;23769;52.478;13.448;2022-12-18T05:03:53;48.92;;;17.25;;
37945;SDS011;23769;52.478;13.448;2022-12-18T05:06:20;52.28;;;18.40;;
37945;SDS011;23769;52.478;13.448;2022-12-18T05:08:48;48.38;;;16.58;;
37945;SDS011;23769;52.478;13.448;2022-12-18T05:11:15;53.65;;;17.45;;
37945;SDS011;23769;52.478;13.448;2022-12-18T05:13:43;55.17;;;19.00;;
37945;SDS011;23769;52.478;13.448;2022-12-18T05:16:12;63.97;;;20.23;;
37945;SDS011;23769;52.478;13.448;2022-12-18T05:18:39;60.50;;;19.48;;
37945;SDS011;23769;52.478;13.448;2022-12-18T05:21:06;62.63;;;19.38;;
37945;SDS011;23769;52.478;13.448;2022-12-18T05:23:34;65.70;;;21.75;;
37945;SDS011;23769;52.478;13.448;2022-12-18T05:26:02;54.85;;;19.50;;
37945;SDS011;23769;52.478;13.448;2022-12-18T05:28:30;64.30;;;21.38;;
37945;SDS011;23769;52.478;13.448;2022-12-18T05:30:59;67.95;;;22.02;;
37945;SDS011;23769;52.478;13.448;2022-12-18T05:33:29;63.70;;;22.33;;
37945;SDS011;23769;52.478;13.448;2022-12-18T05:35:57;66.53;;;22.25;;
37945;SDS011;23769;52.478;13.448;2022-12-18T05:38:24;69.30;;;21.63;;
37945;SDS011;23769;52.478;13.448;2022-12-18T05:40:52;69.95;;;22.20;;
37945;SDS011;23769;52.478;13.448;2022-12-18T05:43:19;72.20;;;23.48;;
37945;SDS011;23769;52.478;13.448;2022-12-18T05:45:48;63.13;;;19.90;;
37945;SDS011;23769;52.478;13.448;2022-12-18T05:48:15;62.22;;;20.48;;
37945;SDS011;23769;52.478;13.448;2022-12-18T05:50:45;70.68;;;22.25;;
37945;SDS011;23769;52.478;13.448;2022-12-18T05:53:12;62.50;;;20.30;;
37945;SDS011;23769;52.478;13.448;2022-12-18T05:55:40;66.18;;;21.60;;
37945;SDS011;23769;52.478;13.448;2022-12-18T05:58:09;72.15;;;22.90;;
37945;SDS011;23769;52.478;13.448;2022-12-18T06:00:37;58.90;;;20.67;;
37945;SDS011;23769;52.478;13.448;2022-12-18T06:03:05;71.50;;;24.00;;
37945;SDS011;23769;52.478;13.448;2022-12-18T06:05:34;63.70;;;22.38;;
37945;SDS011;23769;52.478;13.448;2022-12-18T06:08:03;71.90;;;22.95;;
37945;SDS011;23769;52.478;13.448;2022-12-18T06:10:31;59.03;;;20.83;;
37945;SDS011;23769;52.478;13.448;2022-12-18T06:12:58;76.97;;;27.25;;
37945;SDS011;23769;52.478;13.448;2022-12-18T06:15:25;72.05;;;23.42;;
37945;SDS011;23769;52.478;13.448;2022-12-18T06:17:52;67.68;;;22.70;;
37945;SDS011;23769;52.478;13.448;2022-12-18T06:20:19;67.93;;;23.02;;
37945;SDS011;23769;52.478;13.448;2022-12-18T06:22:47;63.80;;;22.23;;
37945;SDS011;23769;52.478;13.448;2022-12-18T06:25:16;62.03;;;22.95;;
37945;SDS011;23769;52.478;13.448;2022-12-18T06:27:43;63.03;;;21.73;;
37945;SDS011;23769;52.478;13.448;2022-12-18T06:30:10;63.85;;;22.45;;
37945;SDS011;23769;52.478;13.448;2022-12-18T06:32:38;62.00;;;21.50;;
37945;SDS011;23769;52.478;13.448;2022-12-18T06:35:05;60.75;;;21.63;;
37945;SDS011;23769;52.478;13.448;2022-12-18T06:37:33;61.10;;;22.33;;
37945;SDS011;23769;52.478;13.448;2022-12-18T06:40:00;57.92;;;20.85;;
37945;SDS011;23769;52.478;13.448;2022-12-18T06:42:29;62.78;;;21.85;;
37945;SDS011;23769;52.478;13.448;2022-12-18T06:44:57;63.08;;;21.60;;
37945;SDS011;23769;52.478;13.448;2022-12-18T06:47:24;63.67;;;22.52;;
37945;SDS011;23769;52.478;13.448;2022-12-18T06:49:51;65.15;;;22.38;;
37945;SDS011;23769;52.478;13.448;2022-12-18T06:52:18;61.95;;;22.17;;
37945;SDS011;23769;52.478;13.448;2022-12-18T06:54:45;65.30;;;22.02;;
37945;SDS011;23769;52.478;13.448;2022-12-18T06:57:12;57.58;;;22.27;;
37945;SDS011;23769;52.478;13.448;2022-12-18T06:59:41;62.75;;;21.10;;
37945;SDS011;23769;52.478;13.448;2022-12-18T07:02:10;53.88;;;19.88;;
37945;SDS011;23769;52.478;13.448;2022-12-18T07:04:37;58.15;;;18.95;;
37945;SDS011;23769;52.478;13.448;2022-12-18T07:07:04;64.07;;;21.95;;
37945;SDS011;23769;52.478;13.448;2022-12-18T07:09:32;60.30;;;21.15;;
37945;SDS011;23769;52.478;13.448;2022-12-18T07:11:59;59.53;;;21.25;;
37945;SDS011;23769;52.478;13.448;2022-12-18T07:14:26;63.08;;;22.33;;
37945;SDS011;23769;52.478;13.448;2022-12-18T07:16:54;61.97;;;20.50;;
37945;SDS011;23769;52.478;13.448;2022-12-18T07:19:22;64.57;;;21.23;;
37945;SDS011;23769;52.478;13.448;2022-12-18T07:21:49;58.15;;;20.52;;
37945;SDS011;23769;52.478;13.448;2022-12-18T07:24:16;63.75;;;22.35;;
37945;SDS011;23769;52.478;13.448;2022-12-18T07:26:45;59.25;;;20.92;;
37945;SDS011;23769;52.478;13.448;2022-12-18T07:29:12;69.20;;;21.35;;
37945;SDS011;23769;52.478;13.448;2022-12-18T07:31:39;67.68;;;20.60;;
37945;SDS011;23769;52.478;13.448;2022-12-18T07:34:10;63.90;;;20.70;;
37945;SDS011;23769;52.478;13.448;2022-12-18T07:36:38;55.53;;;19.30;;
37945;SDS011;23769;52.478;13.448;2022-12-18T07:39:05;59.08;;;20.20;;
37945;SDS011;23769;52.478;13.448;2022-12-18T07:41:32;56.05;;;19.55;;
37945;SDS011;23769;52.478;13.448;2022-12-18T07:43:59;62.92;;;21.38;;
37945;SDS011;23769;52.478;13.448;2022-12-18T07:46:26;64.18;;;21.85;;
37945;SDS011;23769;52.478;13.448;2022-12-18T07:48:54;63.25;;;21.70;;
37945;SDS011;23769;52.478;13.448;2022-12-18T07:51:22;59.97;;;21.35;;
37945;SDS011;23769;52.478;13.448;2022-12-18T07:53:50;61.88;;;20.92;;
37945;SDS011;23769;52.478;13.448;2022-12-18T07:56:17;60.10;;;21.13;;
37945;SDS011;23769;52.478;13.448;2022-12-18T07:58:44;71.30;;;21.17;;
37945;SDS011;23769;52.478;13.448;2022-12-18T08:01:12;60.40;;;19.92;;
37945;SDS011;23769;52.478;13.448;2022-12-18T08:03:40;51.97;;;19.15;;
37945;SDS011;23769;52.478;13.448;2022-12-18T08:06:08;52.28;;;19.73;;
37945;SDS011;23769;52.478;13.448;2022-12-18T08:08:36;53.45;;;19.00;;
37945;SDS011;23769;52.478;13.448;2022-12-18T08:11:05;56.60;;;19.27;;
37945;SDS011;23769;52.478;13.448;2022-12-18T08:13:32;54.08;;;19.45;;
37945;SDS011;23769;52.478;13.448;2022-12-18T08:16:01;59.47;;;20.38;;
37945;SDS011;23769;52.478;13.448;2022-12-18T08:18:28;47.40;;;17.83;;
37945;SDS011;23769;52.478;13.448;2022-12-18T08:21:07;50.47;;;18.50;;
37945;SDS011;23769;52.478;13.448;2022-12-18T08:23:34;49.45;;;17.85;;
37945;SDS011;23769;52.478;13.448;2022-12-18T08:26:03;42.63;;;16.95;;
37945;SDS011;23769;52.478;13.448;2022-12-18T08:28:30;46.60;;;17.90;;
37945;SDS011;23769;52.478;13.448;2022-12-18T08:30:58;48.00;;;19.30;;
37945;SDS011;23769;52.478;13.448;2022-12-18T08:33:25;46.50;;;17.38;;
37945;SDS011;23769;52.478;13.448;2022-12-18T08:35:52;47.05;;;18.60;;
37945;SDS011;23769;52.478;13.448;2022-12-18T08:38:20;50.45;;;17.25;;
37945;SDS011;23769;52.478;13.448;2022-12-18T08:40:48;71.78;;;27.88;;
37945;SDS011;23769;52.478;13.448;2022-12-18T08:43:16;68.35;;;25.80;;
37945;SDS011;23769;52.478;13.448;2022-12-18T08:46:01;48.65;;;16.45;;
37945;SDS011;23769;52.478;13.448;2022-12-18T08:48:28;46.80;;;17.70;;
37945;SDS011;23769;52.478;13.448;2022-12-18T08:50:56;43.50;;;16.63;;
37945;SDS011;23769;52.478;13.448;2022-12-18T08:53:23;44.90;;;17.70;;
37945;SDS011;23769;52.478;13.448;2022-12-18T08:55:51;46.58;;;17.48;;
37945;SDS011;23769;52.478;13.448;2022-12-18T08:58:19;37.42;;;15.98;;
37945;SDS011;23769;52.478;13.448;2022-12-18T09:00:47;47.30;;;17.15;;
37945;SDS011;23769;52.478;13.448;2022-12-18T09:03:14;40.55;;;15.85;;
37945;SDS011;23769;52.478;13.448;2022-12-18T09:05:41;44.35;;;16.25;;
37945;SDS011;23769;52.478;13.448;2022-12-18T09:08:09;45.95;;;17.80;;
37945;SDS011;23769;52.478;13.448;2022-12-18T09:10:41;44.05;;;15.88;;
37945;SDS011;23769;52.478;13.448;2022-12-18T09:13:08;43.47;;;17.17;;
37945;SDS011;23769;52.478;13.448;2022-12-18T09:15:41;48.38;;;17.45;;
37945;SDS011;23769;52.478;13.448;2022-12-18T09:18:08;47.10;;;18.45;;
37945;SDS011;23769;52.478;13.448;2022-12-18T09:20:36;51.90;;;18.30;;
37945;SDS011;23769;52.478;13.448;2022-12-18T09:23:03;40.05;;;15.23;;
37945;SDS011;23769;52.478;13.448;2022-12-18T09:25:30;47.08;;;18.67;;
37945;SDS011;23769;52.478;13.448;2022-12-18T09:27:58;50.35;;;16.92;;
37945;SDS011;23769;52.478;13.448;2022-12-18T09:30:25;46.95;;;17.60;;
37945;SDS011;23769;52.478;13.448;2022-12-18T09:32:53;47.55;;;18.50;;
37945;SDS011;23769;52.478;13.448;2022-12-18T09:35:21;45.60;;;17.77;;
37945;SDS011;23769;52.478;13.448;2022-12-18T09:37:48;44.80;;;17.15;;
37945;SDS011;23769;52.478;13.448;2022-12-18T09:40:15;42.90;;;16.80;;
37945;SDS011;23769;52.478;13.448;2022-12-18T09:42:43;48.95;;;19.02;;
37945;SDS011;23769;52.478;13.448;2022-12-18T09:45:12;53.28;;;17.98;;
37945;SDS011;23769;52.478;13.448;2022-12-18T09:47:40;43.83;;;17.55;;
37945;SDS011;23769;52.478;13.448;2022-12-18T09:50:16;46.15;;;18.00;;
37945;SDS011;23769;52.478;13.448;2022-12-18T09:52:46;49.97;;;17.77;;
37945;SDS011;23769;52.478;13.448;2022-12-18T09:55:19;48.00;;;18.42;;
37945;SDS011;23769;52.478;13.448;2022-12-18T09:57:49;67.25;;;24.67;;
37945;SDS011;23769;52.478;13.448;2022-12-18T10:00:19;66.22;;;25.63;;
37945;SDS011;23769;52.478;13.448;2022-12-18T10:02:46;53.92;;;19.88;;
37945;SDS011;23769;52.478;13.448;2022-12-18T10:05:16;51.85;;;21.83;;
37945;SDS011;23769;52.478;13.448;2022-12-18T10:07:52;78.20;;;28.63;;
37945;SDS011;23769;52.478;13.448;2022-12-18T10:10:32;79.60;;;30.83;;
37945;SDS011;23769;52.478;13.448;2022-12-18T10:13:02;69.53;;;27.00;;
37945;SDS011;23769;52.478;13.448;2022-12-18T10:15:34;55.97;;;20.35;;
37945;SDS011;23769;52.478;13.448;2022-12-18T10:18:06;44.10;;;17.88;;
37945;SDS011;23769;52.478;13.448;2022-12-18T10:20:40;48.67;;;18.80;;
37945;SDS011;23769;52.478;13.448;2022-12-18T10:23:11;50.97;;;18.45;;
37945;SDS011;23769;52.478;13.448;2022-12-18T10:25:44;57.47;;;20.35;;
37945;SDS011;23769;52.478;13.448;2022-12-18T10:28:15;49.83;;;18.52;;
37945;SDS011;23769;52.478;13.448;2022-12-18T10:30:42;50.33;;;18.52;;
37945;SDS011;23769;52.478;13.448;2022-12-18T10:33:10;46.70;;;19.80;;
37945;SDS011;23769;52.478;13.448;2022-12-18T10:35:39;56.92;;;19.60;;
37945;SDS011;23769;52.478;13.448;2022-12-18T10:38:20;50.38;;;20.08;;
37945;SDS011;23769;52.478;13.448;2022-12-18T10:40:48;43.63;;;18.73;;
37945;SDS011;23769;52.478;13.448;2022-12-18T10:43:19;51.83;;;18.40;;
37945;SDS011;23769;52.478;13.448;2022-12-18T10:45:57;49.70;;;19.38;;
37945;SDS011;23769;52.478;13.448;2022-12-18T10:48:25;51.33;;;19.70;;
37945;SDS011;23769;52.478;13.448;2022-12-18T10:50:53;49.95;;;19.85;;
37945;SDS011;23769;52.478;13.448;2022-12-18T10:53:22;53.00;;;20.48;;
37945;SDS011;23769;52.478;13.448;2022-12-18T10:55:49;50.65;;;20.10;;
37945;SDS011;23769;52.478;13.448;2022-12-18T10:58:21;51.90;;;19.70;;
37945;SDS011;23769;52.478;13.448;2022-12-18T11:01:01;44.00;;;17.35;;
37945;SDS011;23769;52.478;13.448;2022-12-18T11:03:30;53.80;;;20.20;;
37945;SDS011;23769;52.478;13.448;2022-12-18T11:06:06;48.70;;;20.15;;
37945;SDS011;23769;52.478;13.448;2022-12-18T11:08:33;48.42;;;18.67;;
37945;SDS011;23769;52.478;13.448;2022-12-18T11:11:01;52.85;;;20.45;;
37945;SDS011;23769;52.478;13.448;2022-12-18T11:13:29;56.55;;;24.42;;
37945;SDS011;23769;52.478;13.448;2022-12-18T11:15:57;49.00;;;19.35;;
37945;SDS011;23769;52.478;13.448;2022-12-18T11:18:26;40.83;;;17.13;;
37945;SDS011;23769;52.478;13.448;2022-12-18T11:20:54;37.63;;;16.05;;
37945;SDS011;23769;52.478;13.448;2022-12-18T11:23:24;47.20;;;18.20;;
37945;SDS011;23769;52.478;13.448;2022-12-18T11:25:52;65.57;;;28.42;;
37945;SDS011;23769;52.478;13.448;2022-12-18T11:28:28;48.63;;;18.38;;
37945;SDS011;23769;52.478;13.448;2022-12-18T11:33:44;50.80;;;20.33;;
37945;SDS011;23769;52.478;13.448;2022-12-18T11:36:13;52.17;;;20.35;;
37945;SDS011;23769;52.478;13.448;2022-12-18T11:38:42;55.90;;;21.63;;
37945;SDS011;23769;52.478;13.448;2022-12-18T11:41:13;37.72;;;15.18;;
37945;SDS011;23769;52.478;13.448;2022-12-18T11:43:44;41.42;;;17.42;;
37945;SDS011;23769;52.478;13.448;2022-12-18T11:46:13;46.63;;;18.02;;
37945;SDS011;23769;52.478;13.448;2022-12-18T11:48:43;41.05;;;16.48;;
37945;SDS011;23769;52.478;13.448;2022-12-18T11:51:13;39.03;;;16.05;;
37945;SDS011;23769;52.478;13.448;2022-12-18T11:53:42;42.30;;;17.33;;
37945;SDS011;23769;52.478;13.448;2022-12-18T11:56:15;42.97;;;17.70;;
37945;SDS011;23769;52.478;13.448;2022-12-18T11:58:53;40.28;;;15.38;;
37945;SDS011;23769;52.478;13.448;2022-12-18T12:01:28;46.72;;;17.27;;
37945;SDS011;23769;52.478;13.448;2022-12-18T12:04:05;40.33;;;17.10;;
37945;SDS011;23769;52.478;13.448;2022-12-18T12:06:37;45.10;;;15.60;;
37945;SDS011;23769;52.478;13.448;2022-12-18T12:09:11;43.70;;;17.73;;
37945;SDS011;23769;52.478;13.448;2022-12-18T12:11:43;46.33;;;17.55;;
37945;SDS011;23769;52.478;13.448;2022-12-18T12:14:24;39.78;;;16.80;;
37945;SDS011;23769;52.478;13.448;2022-12-18T12:16:53;39.08;;;15.45;;
37945;SDS011;23769;52.478;13.448;2022-12-18T12:19:27;52.80;;;20.77;;
37945;SDS011;23769;52.478;13.448;2022-12-18T12:22:00;44.22;;;17.20;;
37945;SDS011;23769;52.478;13.448;2022-12-18T12:24:35;42.25;;;17.00;;
37945;SDS011;23769;52.478;13.448;2022-12-18T12:27:05;42.33;;;17.15;;
37945;SDS011;23769;52.478;13.448;2022-12-18T12:29:39;41.28;;;17.20;;
37945;SDS011;23769;52.478;13.448;2022-12-18T12:34:58;42.00;;;15.40;;
37945;SDS011;23769;52.478;13.448;2022-12-18T12:37:32;41.13;;;15.65;;
37945;SDS011;23769;52.478;13.448;2022-12-18T12:40:05;36.92;;;15.60;;
37945;SDS011;23769;52.478;13.448;2022-12-18T12:42:34;39.95;;;16.45;;
37945;SDS011;23769;52.478;13.448;2022-12-18T12:45:21;40.25;;;16.80;;
37945;SDS011;23769;52.478;13.448;2022-12-18T12:47:49;44.55;;;18.00;;
37945;SDS011;23769;52.478;13.448;2022-12-18T12:50:18;46.25;;;19.73;;
37945;SDS011;23769;52.478;13.448;2022-12-18T12:52:46;44.35;;;18.40;;
37945;SDS011;23769;52.478;13.448;2022-12-18T12:55:16;43.63;;;18.08;;
37945;SDS011;23769;52.478;13.448;2022-12-18T12:57:45;37.83;;;15.13;;
37945;SDS011;23769;52.478;13.448;2022-12-18T13:00:14;89.80;;;36.83;;
37945;SDS011;23769;52.478;13.448;2022-12-18T13:02:42;48.33;;;22.23;;
37945;SDS011;23769;52.478;13.448;2022-12-18T13:05:14;39.70;;;18.05;;
37945;SDS011;23769;52.478;13.448;2022-12-18T13:07:47;58.35;;;24.50;;
37945;SDS011;23769;52.478;13.448;2022-12-18T13:13:03;37.45;;;17.10;;
37945;SDS011;23769;52.478;13.448;2022-12-18T13:15:31;45.80;;;17.90;;
37945;SDS011;23769;52.478;13.448;2022-12-18T13:18:03;40.50;;;16.90;;
37945;SDS011;23769;52.478;13.448;2022-12-18T13:20:32;39.75;;;17.58;;
37945;SDS011;23769;52.478;13.448;2022-12-18T13:23:01;38.30;;;17.63;;
37945;SDS011;23769;52.478;13.448;2022-12-18T13:25:45;40.17;;;17.52;;
37945;SDS011;23769;52.478;13.448;2022-12-18T13:28:14;42.55;;;18.85;;
37945;SDS011;23769;52.478;13.448;2022-12-18T13:30:46;45.72;;;19.88;;
37945;SDS011;23769;52.478;13.448;2022-12-18T13:36:27;40.70;;;18.33;;
37945;SDS011;23769;52.478;13.448;2022-12-18T13:41:41;40.17;;;17.83;;
37945;SDS011;23769;52.478;13.448;2022-12-18T13:44:13;36.28;;;18.40;;
37945;SDS011;23769;52.478;13.448;2022-12-18T13:46:48;38.58;;;17.42;;
37945;SDS011;23769;52.478;13.448;2022-12-18T13:49:20;47.28;;;19.98;;
37945;SDS011;23769;52.478;13.448;2022-12-18T13:51:48;43.60;;;17.55;;
37945;SDS011;23769;52.478;13.448;2022-12-18T13:54:18;40.97;;;17.23;;
37945;SDS011;23769;52.478;13.448;2022-12-18T13:56:46;41.38;;;18.92;;
37945;SDS011;23769;52.478;13.448;2022-12-18T13:59:16;46.80;;;19.20;;
37945;SDS011;23769;52.478;13.448;2022-12-18T14:01:45;47.42;;;21.55;;
37945;SDS011;23769;52.478;13.448;2022-12-18T14:04:17;41.85;;;20.48;;
37945;SDS011;23769;52.478;13.448;2022-12-18T14:06:45;46.47;;;22.15;;
37945;SDS011;23769;52.478;13.448;2022-12-18T14:09:13;52.42;;;22.98;;
37945;SDS011;23769;52.478;13.448;2022-12-18T14:11:45;48.00;;;21.98;;
37945;SDS011;23769;52.478;13.448;2022-12-18T14:14:13;45.97;;;20.00;;
37945;SDS011;23769;52.478;13.448;2022-12-18T14:16:42;56.70;;;25.77;;
37945;SDS011;23769;52.478;13.448;2022-12-18T14:19:10;55.58;;;23.63;;
37945;SDS011;23769;52.478;13.448;2022-12-18T14:21:39;51.33;;;21.98;;
37945;SDS011;23769;52.478;13.448;2022-12-18T14:24:11;45.53;;;19.83;;
37945;SDS011;23769;52.478;13.448;2022-12-18T14:26:39;41.50;;;19.65;;
37945;SDS011;23769;52.478;13.448;2022-12-18T14:29:23;44.00;;;20.27;;
37945;SDS011;23769;52.478;13.448;2022-12-18T14:34:38;39.85;;;18.65;;
37945;SDS011;23769;52.478;13.448;2022-12-18T14:37:05;39.88;;;17.20;;
37945;SDS011;23769;52.478;13.448;2022-12-18T14:39:33;44.53;;;19.73;;
37945;SDS011;23769;52.478;13.448;2022-12-18T14:42:00;42.08;;;19.02;;